sensor_id;sensor_type;location;lat;lon;timestamp;P1;durP1;ratioP1;P2;durP2;ratioP2
67839;SDS011;54636;51.684;5.142;2022-07-30T00:01:48;16.30;;;8.45;;
67839;SDS011;54636;51.684;5.142;2022-07-30T00:04:15;12.05;;;7.95;;
67839;SDS011;54636;51.684;5.142;2022-07-30T00:06:40;15.80;;;9.52;;
67839;SDS011;54636;51.684;5.142;2022-07-30T00:09:06;15.05;;;8.43;;
67839;SDS011;54636;51.684;5.142;2022-07-30T00:11:31;13.45;;;8.38;;
67839;SDS011;54636;51.684;5.142;2022-07-30T00:13:57;21.42;;;9.68;;
67839;SDS011;54636;51.684;5.142;2022-07-30T00:16:22;14.60;;;9.73;;
67839;SDS011;54636;51.684;5.142;2022-07-30T00:18:48;15.30;;;8.90;;
67839;SDS011;54636;51.684;5.142;2022-07-30T00:21:13;17.02;;;9.38;;
67839;SDS011;54636;51.684;5.142;2022-07-30T00:23:39;20.45;;;9.73;;
67839;SDS011;54636;51.684;5.142;2022-07-30T00:26:04;21.10;;;9.77;;
67839;SDS011;54636;51.684;5.142;2022-07-30T00:28:30;20.67;;;9.57;;
67839;SDS011;54636;51.684;5.142;2022-07-30T00:30:55;16.42;;;10.27;;
67839;SDS011;54636;51.684;5.142;2022-07-30T00:33:21;15.98;;;10.40;;
67839;SDS011;54636;51.684;5.142;2022-07-30T00:35:46;20.42;;;11.20;;
67839;SDS011;54636;51.684;5.142;2022-07-30T00:38:11;20.77;;;11.40;;
67839;SDS011;54636;51.684;5.142;2022-07-30T00:40:37;19.70;;;10.63;;
67839;SDS011;54636;51.684;5.142;2022-07-30T00:43:02;15.32;;;11.70;;
67839;SDS011;54636;51.684;5.142;2022-07-30T00:45:28;14.75;;;10.45;;
67839;SDS011;54636;51.684;5.142;2022-07-30T00:47:53;17.27;;;10.98;;
67839;SDS011;54636;51.684;5.142;2022-07-30T00:50:18;15.65;;;9.88;;
67839;SDS011;54636;51.684;5.142;2022-07-30T00:52:44;15.07;;;10.15;;
67839;SDS011;54636;51.684;5.142;2022-07-30T00:55:10;21.60;;;11.20;;
67839;SDS011;54636;51.684;5.142;2022-07-30T00:57:41;18.67;;;10.68;;
67839;SDS011;54636;51.684;5.142;2022-07-30T01:00:08;18.75;;;11.18;;
67839;SDS011;54636;51.684;5.142;2022-07-30T01:02:36;19.27;;;11.90;;
67839;SDS011;54636;51.684;5.142;2022-07-30T01:05:01;19.35;;;11.60;;
67839;SDS011;54636;51.684;5.142;2022-07-30T01:07:27;23.15;;;11.45;;
67839;SDS011;54636;51.684;5.142;2022-07-30T01:09:53;21.98;;;11.38;;
67839;SDS011;54636;51.684;5.142;2022-07-30T01:12:19;18.23;;;11.68;;
67839;SDS011;54636;51.684;5.142;2022-07-30T01:14:47;17.92;;;11.77;;
67839;SDS011;54636;51.684;5.142;2022-07-30T01:17:13;15.38;;;10.98;;
67839;SDS011;54636;51.684;5.142;2022-07-30T01:19:38;18.95;;;11.50;;
67839;SDS011;54636;51.684;5.142;2022-07-30T01:30:39;16.98;;;10.85;;
67839;SDS011;54636;51.684;5.142;2022-07-30T01:33:06;19.25;;;12.05;;
67839;SDS011;54636;51.684;5.142;2022-07-30T01:35:35;18.35;;;11.70;;
67839;SDS011;54636;51.684;5.142;2022-07-30T01:38:04;21.05;;;12.68;;
67839;SDS011;54636;51.684;5.142;2022-07-30T01:40:31;18.08;;;12.00;;
67839;SDS011;54636;51.684;5.142;2022-07-30T01:42:58;28.45;;;12.23;;
67839;SDS011;54636;51.684;5.142;2022-07-30T01:45:27;14.43;;;11.45;;
67839;SDS011;54636;51.684;5.142;2022-07-30T01:47:54;18.35;;;12.27;;
67839;SDS011;54636;51.684;5.142;2022-07-30T01:50:23;15.50;;;12.05;;
67839;SDS011;54636;51.684;5.142;2022-07-30T01:52:50;19.20;;;11.32;;
67839;SDS011;54636;51.684;5.142;2022-07-30T01:55:20;18.40;;;11.52;;
67839;SDS011;54636;51.684;5.142;2022-07-30T01:57:54;19.17;;;11.80;;
67839;SDS011;54636;51.684;5.142;2022-07-30T02:00:21;26.75;;;12.05;;
67839;SDS011;54636;51.684;5.142;2022-07-30T02:02:49;20.30;;;11.90;;
67839;SDS011;54636;51.684;5.142;2022-07-30T02:05:15;15.88;;;11.07;;
67839;SDS011;54636;51.684;5.142;2022-07-30T02:13:05;15.48;;;11.57;;
67839;SDS011;54636;51.684;5.142;2022-07-30T02:15:42;17.55;;;11.38;;
67839;SDS011;54636;51.684;5.142;2022-07-30T02:18:17;16.88;;;11.10;;
67839;SDS011;54636;51.684;5.142;2022-07-30T02:20:59;21.30;;;12.20;;
67839;SDS011;54636;51.684;5.142;2022-07-30T02:23:28;17.40;;;11.30;;
67839;SDS011;54636;51.684;5.142;2022-07-30T02:25:55;14.48;;;11.02;;
67839;SDS011;54636;51.684;5.142;2022-07-30T02:28:23;17.40;;;11.10;;
67839;SDS011;54636;51.684;5.142;2022-07-30T02:30:51;26.65;;;11.73;;
67839;SDS011;54636;51.684;5.142;2022-07-30T02:33:20;16.25;;;12.50;;
67839;SDS011;54636;51.684;5.142;2022-07-30T02:35:50;19.60;;;12.63;;
67839;SDS011;54636;51.684;5.142;2022-07-30T02:38:17;16.83;;;11.73;;
67839;SDS011;54636;51.684;5.142;2022-07-30T02:40:43;14.10;;;10.88;;
67839;SDS011;54636;51.684;5.142;2022-07-30T02:43:10;19.55;;;12.38;;
67839;SDS011;54636;51.684;5.142;2022-07-30T02:45:39;16.88;;;11.27;;
67839;SDS011;54636;51.684;5.142;2022-07-30T02:48:06;15.30;;;11.75;;
67839;SDS011;54636;51.684;5.142;2022-07-30T02:50:34;21.67;;;12.68;;
67839;SDS011;54636;51.684;5.142;2022-07-30T02:53:01;15.07;;;12.18;;
67839;SDS011;54636;51.684;5.142;2022-07-30T02:57:59;17.40;;;10.80;;
67839;SDS011;54636;51.684;5.142;2022-07-30T03:00:26;17.23;;;11.68;;
67839;SDS011;54636;51.684;5.142;2022-07-30T03:02:54;13.45;;;11.13;;
67839;SDS011;54636;51.684;5.142;2022-07-30T03:05:22;18.83;;;11.15;;
67839;SDS011;54636;51.684;5.142;2022-07-30T03:07:47;18.30;;;11.30;;
67839;SDS011;54636;51.684;5.142;2022-07-30T03:10:13;17.48;;;10.95;;
67839;SDS011;54636;51.684;5.142;2022-07-30T03:12:41;15.60;;;10.95;;
67839;SDS011;54636;51.684;5.142;2022-07-30T03:15:09;18.30;;;10.60;;
67839;SDS011;54636;51.684;5.142;2022-07-30T03:17:40;14.45;;;10.95;;
67839;SDS011;54636;51.684;5.142;2022-07-30T03:20:08;18.95;;;11.00;;
67839;SDS011;54636;51.684;5.142;2022-07-30T03:22:38;16.73;;;11.63;;
67839;SDS011;54636;51.684;5.142;2022-07-30T03:25:06;19.42;;;10.77;;
67839;SDS011;54636;51.684;5.142;2022-07-30T03:27:33;28.88;;;11.70;;
67839;SDS011;54636;51.684;5.142;2022-07-30T03:30:02;22.33;;;12.57;;
67839;SDS011;54636;51.684;5.142;2022-07-30T03:32:29;23.10;;;12.13;;
67839;SDS011;54636;51.684;5.142;2022-07-30T03:34:55;15.27;;;10.23;;
67839;SDS011;54636;51.684;5.142;2022-07-30T03:37:23;19.02;;;11.55;;
67839;SDS011;54636;51.684;5.142;2022-07-30T03:39:51;19.65;;;11.57;;
67839;SDS011;54636;51.684;5.142;2022-07-30T03:42:18;24.35;;;11.60;;
67839;SDS011;54636;51.684;5.142;2022-07-30T03:44:44;14.68;;;11.43;;
67839;SDS011;54636;51.684;5.142;2022-07-30T03:47:10;14.43;;;11.73;;
67839;SDS011;54636;51.684;5.142;2022-07-30T03:49:37;18.25;;;11.63;;
67839;SDS011;54636;51.684;5.142;2022-07-30T03:52:03;17.77;;;11.50;;
67839;SDS011;54636;51.684;5.142;2022-07-30T03:54:32;24.58;;;13.32;;
67839;SDS011;54636;51.684;5.142;2022-07-30T03:56:59;14.05;;;11.65;;
67839;SDS011;54636;51.684;5.142;2022-07-30T03:59:25;19.73;;;11.88;;
67839;SDS011;54636;51.684;5.142;2022-07-30T04:01:51;16.13;;;12.55;;
67839;SDS011;54636;51.684;5.142;2022-07-30T04:04:17;19.40;;;11.90;;
67839;SDS011;54636;51.684;5.142;2022-07-30T04:06:42;16.00;;;12.27;;
67839;SDS011;54636;51.684;5.142;2022-07-30T04:09:08;18.10;;;12.15;;
67839;SDS011;54636;51.684;5.142;2022-07-30T04:11:36;19.30;;;12.35;;
67839;SDS011;54636;51.684;5.142;2022-07-30T04:14:02;18.00;;;13.50;;
67839;SDS011;54636;51.684;5.142;2022-07-30T04:19:06;19.48;;;12.90;;
67839;SDS011;54636;51.684;5.142;2022-07-30T04:21:34;16.25;;;13.38;;
67839;SDS011;54636;51.684;5.142;2022-07-30T04:24:04;20.80;;;13.13;;
67839;SDS011;54636;51.684;5.142;2022-07-30T04:26:33;18.98;;;11.98;;
67839;SDS011;54636;51.684;5.142;2022-07-30T04:29:00;18.48;;;12.70;;
67839;SDS011;54636;51.684;5.142;2022-07-30T04:31:27;17.42;;;12.18;;
67839;SDS011;54636;51.684;5.142;2022-07-30T04:33:53;20.35;;;12.95;;
67839;SDS011;54636;51.684;5.142;2022-07-30T04:36:18;15.68;;;12.75;;
67839;SDS011;54636;51.684;5.142;2022-07-30T04:38:44;18.58;;;12.18;;
67839;SDS011;54636;51.684;5.142;2022-07-30T04:41:09;20.70;;;13.27;;
67839;SDS011;54636;51.684;5.142;2022-07-30T04:43:35;17.52;;;13.48;;
67839;SDS011;54636;51.684;5.142;2022-07-30T04:46:00;16.17;;;12.95;;
67839;SDS011;54636;51.684;5.142;2022-07-30T04:48:25;14.02;;;10.23;;
67839;SDS011;54636;51.684;5.142;2022-07-30T04:50:52;14.05;;;9.55;;
67839;SDS011;54636;51.684;5.142;2022-07-30T04:53:21;10.27;;;8.87;;
67839;SDS011;54636;51.684;5.142;2022-07-30T04:55:47;10.25;;;8.18;;
67839;SDS011;54636;51.684;5.142;2022-07-30T04:58:15;15.90;;;8.93;;
67839;SDS011;54636;51.684;5.142;2022-07-30T05:00:44;10.45;;;8.73;;
67839;SDS011;54636;51.684;5.142;2022-07-30T05:03:11;11.18;;;9.43;;
67839;SDS011;54636;51.684;5.142;2022-07-30T05:05:39;15.95;;;10.15;;
67839;SDS011;54636;51.684;5.142;2022-07-30T05:08:04;18.52;;;10.18;;
67839;SDS011;54636;51.684;5.142;2022-07-30T05:10:30;19.38;;;9.85;;
67839;SDS011;54636;51.684;5.142;2022-07-30T05:12:56;14.15;;;10.05;;
67839;SDS011;54636;51.684;5.142;2022-07-30T05:15:21;14.25;;;11.18;;
67839;SDS011;54636;51.684;5.142;2022-07-30T05:17:47;15.27;;;10.10;;
67839;SDS011;54636;51.684;5.142;2022-07-30T05:20:13;13.38;;;10.50;;
67839;SDS011;54636;51.684;5.142;2022-07-30T05:22:38;16.02;;;9.93;;
67839;SDS011;54636;51.684;5.142;2022-07-30T05:25:03;13.05;;;9.95;;
67839;SDS011;54636;51.684;5.142;2022-07-30T05:27:29;11.15;;;9.20;;
67839;SDS011;54636;51.684;5.142;2022-07-30T05:29:55;13.68;;;8.82;;
67839;SDS011;54636;51.684;5.142;2022-07-30T05:32:20;10.10;;;9.02;;
67839;SDS011;54636;51.684;5.142;2022-07-30T05:34:46;13.88;;;9.10;;
67839;SDS011;54636;51.684;5.142;2022-07-30T05:37:12;9.25;;;7.90;;
67839;SDS011;54636;51.684;5.142;2022-07-30T05:39:37;12.45;;;7.70;;
67839;SDS011;54636;51.684;5.142;2022-07-30T05:42:03;11.55;;;6.68;;
67839;SDS011;54636;51.684;5.142;2022-07-30T05:44:28;12.30;;;6.07;;
67839;SDS011;54636;51.684;5.142;2022-07-30T05:46:53;14.10;;;6.03;;
67839;SDS011;54636;51.684;5.142;2022-07-30T05:49:19;9.77;;;5.97;;
67839;SDS011;54636;51.684;5.142;2022-07-30T05:51:44;12.10;;;6.28;;
67839;SDS011;54636;51.684;5.142;2022-07-30T05:54:10;10.25;;;5.32;;
67839;SDS011;54636;51.684;5.142;2022-07-30T05:56:35;13.40;;;6.43;;
67839;SDS011;54636;51.684;5.142;2022-07-30T05:59:01;10.05;;;5.97;;
67839;SDS011;54636;51.684;5.142;2022-07-30T06:01:27;11.27;;;5.15;;
67839;SDS011;54636;51.684;5.142;2022-07-30T06:03:53;8.73;;;5.53;;
67839;SDS011;54636;51.684;5.142;2022-07-30T06:06:18;10.90;;;4.30;;
67839;SDS011;54636;51.684;5.142;2022-07-30T06:08:43;13.23;;;3.83;;
67839;SDS011;54636;51.684;5.142;2022-07-30T06:11:09;10.25;;;3.28;;
67839;SDS011;54636;51.684;5.142;2022-07-30T06:13:35;9.38;;;3.78;;
67839;SDS011;54636;51.684;5.142;2022-07-30T06:16:00;10.93;;;3.60;;
67839;SDS011;54636;51.684;5.142;2022-07-30T06:18:26;8.95;;;3.70;;
67839;SDS011;54636;51.684;5.142;2022-07-30T06:20:52;10.82;;;4.13;;
67839;SDS011;54636;51.684;5.142;2022-07-30T06:23:19;10.23;;;4.53;;
67839;SDS011;54636;51.684;5.142;2022-07-30T06:25:45;12.88;;;4.28;;
67839;SDS011;54636;51.684;5.142;2022-07-30T06:28:12;9.88;;;4.00;;
67839;SDS011;54636;51.684;5.142;2022-07-30T06:30:41;6.78;;;3.58;;
67839;SDS011;54636;51.684;5.142;2022-07-30T06:33:09;12.02;;;4.13;;
67839;SDS011;54636;51.684;5.142;2022-07-30T06:35:35;8.35;;;4.20;;
67839;SDS011;54636;51.684;5.142;2022-07-30T06:38:00;14.85;;;3.47;;
67839;SDS011;54636;51.684;5.142;2022-07-30T06:40:26;16.88;;;4.70;;
67839;SDS011;54636;51.684;5.142;2022-07-30T06:42:51;6.18;;;3.10;;
67839;SDS011;54636;51.684;5.142;2022-07-30T06:45:16;7.68;;;3.30;;
67839;SDS011;54636;51.684;5.142;2022-07-30T06:47:42;6.07;;;3.35;;
67839;SDS011;54636;51.684;5.142;2022-07-30T06:50:07;8.60;;;3.95;;
67839;SDS011;54636;51.684;5.142;2022-07-30T06:52:33;5.75;;;2.97;;
67839;SDS011;54636;51.684;5.142;2022-07-30T06:54:58;5.18;;;2.50;;
67839;SDS011;54636;51.684;5.142;2022-07-30T06:57:24;6.68;;;2.42;;
67839;SDS011;54636;51.684;5.142;2022-07-30T06:59:49;3.28;;;2.10;;
67839;SDS011;54636;51.684;5.142;2022-07-30T07:02:15;4.35;;;2.55;;
67839;SDS011;54636;51.684;5.142;2022-07-30T07:04:40;6.25;;;2.25;;
67839;SDS011;54636;51.684;5.142;2022-07-30T07:07:06;3.85;;;2.45;;
67839;SDS011;54636;51.684;5.142;2022-07-30T07:09:31;6.78;;;2.75;;
67839;SDS011;54636;51.684;5.142;2022-07-30T07:11:57;4.63;;;2.42;;
67839;SDS011;54636;51.684;5.142;2022-07-30T07:14:22;5.72;;;2.13;;
67839;SDS011;54636;51.684;5.142;2022-07-30T07:16:48;4.57;;;2.30;;
67839;SDS011;54636;51.684;5.142;2022-07-30T07:19:13;12.32;;;3.08;;
67839;SDS011;54636;51.684;5.142;2022-07-30T07:21:39;6.43;;;2.00;;
67839;SDS011;54636;51.684;5.142;2022-07-30T07:24:04;2.33;;;1.63;;
67839;SDS011;54636;51.684;5.142;2022-07-30T07:26:30;4.82;;;2.40;;
67839;SDS011;54636;51.684;5.142;2022-07-30T07:28:55;4.57;;;1.83;;
67839;SDS011;54636;51.684;5.142;2022-07-30T07:31:21;3.20;;;1.60;;
67839;SDS011;54636;51.684;5.142;2022-07-30T07:33:47;3.22;;;1.70;;
67839;SDS011;54636;51.684;5.142;2022-07-30T07:36:13;6.00;;;2.25;;
67839;SDS011;54636;51.684;5.142;2022-07-30T07:38:38;4.00;;;1.75;;
67839;SDS011;54636;51.684;5.142;2022-07-30T07:41:04;2.63;;;1.73;;
67839;SDS011;54636;51.684;5.142;2022-07-30T07:43:30;6.15;;;1.88;;
67839;SDS011;54636;51.684;5.142;2022-07-30T07:45:55;4.50;;;1.90;;
67839;SDS011;54636;51.684;5.142;2022-07-30T07:48:21;7.22;;;2.10;;
67839;SDS011;54636;51.684;5.142;2022-07-30T07:50:46;3.92;;;1.45;;
67839;SDS011;54636;51.684;5.142;2022-07-30T07:53:12;5.70;;;1.42;;
67839;SDS011;54636;51.684;5.142;2022-07-30T07:55:37;7.00;;;1.83;;
67839;SDS011;54636;51.684;5.142;2022-07-30T07:58:03;6.72;;;2.00;;
67839;SDS011;54636;51.684;5.142;2022-07-30T08:00:29;4.20;;;1.77;;
67839;SDS011;54636;51.684;5.142;2022-07-30T08:02:54;1.80;;;1.70;;
67839;SDS011;54636;51.684;5.142;2022-07-30T08:05:20;5.00;;;1.75;;
67839;SDS011;54636;51.684;5.142;2022-07-30T08:07:45;5.32;;;1.35;;
67839;SDS011;54636;51.684;5.142;2022-07-30T08:10:11;2.60;;;1.67;;
67839;SDS011;54636;51.684;5.142;2022-07-30T08:12:39;4.85;;;1.58;;
67839;SDS011;54636;51.684;5.142;2022-07-30T08:15:04;5.32;;;2.17;;
67839;SDS011;54636;51.684;5.142;2022-07-30T08:17:30;5.03;;;1.95;;
67839;SDS011;54636;51.684;5.142;2022-07-30T08:19:59;5.57;;;1.70;;
67839;SDS011;54636;51.684;5.142;2022-07-30T08:22:25;3.25;;;1.27;;
67839;SDS011;54636;51.684;5.142;2022-07-30T08:24:51;3.63;;;1.88;;
67839;SDS011;54636;51.684;5.142;2022-07-30T08:27:16;3.42;;;1.60;;
67839;SDS011;54636;51.684;5.142;2022-07-30T08:29:42;3.63;;;1.50;;
67839;SDS011;54636;51.684;5.142;2022-07-30T08:32:07;4.32;;;1.80;;
67839;SDS011;54636;51.684;5.142;2022-07-30T08:34:32;5.85;;;1.95;;
67839;SDS011;54636;51.684;5.142;2022-07-30T08:36:58;4.90;;;1.70;;
67839;SDS011;54636;51.684;5.142;2022-07-30T08:39:24;6.13;;;1.40;;
67839;SDS011;54636;51.684;5.142;2022-07-30T08:41:50;5.65;;;1.60;;
67839;SDS011;54636;51.684;5.142;2022-07-30T08:44:16;4.65;;;1.58;;
67839;SDS011;54636;51.684;5.142;2022-07-30T08:46:42;6.03;;;1.42;;
67839;SDS011;54636;51.684;5.142;2022-07-30T08:49:10;3.35;;;1.70;;
67839;SDS011;54636;51.684;5.142;2022-07-30T08:51:36;5.13;;;1.70;;
67839;SDS011;54636;51.684;5.142;2022-07-30T08:54:03;3.50;;;1.73;;
67839;SDS011;54636;51.684;5.142;2022-07-30T08:56:32;9.23;;;1.88;;
67839;SDS011;54636;51.684;5.142;2022-07-30T08:58:58;2.78;;;1.48;;
67839;SDS011;54636;51.684;5.142;2022-07-30T09:01:27;4.10;;;1.40;;
67839;SDS011;54636;51.684;5.142;2022-07-30T09:03:52;3.30;;;1.33;;
67839;SDS011;54636;51.684;5.142;2022-07-30T09:06:18;2.72;;;1.40;;
67839;SDS011;54636;51.684;5.142;2022-07-30T09:08:43;3.58;;;1.67;;
67839;SDS011;54636;51.684;5.142;2022-07-30T09:11:09;4.43;;;1.23;;
67839;SDS011;54636;51.684;5.142;2022-07-30T09:13:36;3.78;;;1.42;;
67839;SDS011;54636;51.684;5.142;2022-07-30T09:16:05;5.65;;;0.93;;
67839;SDS011;54636;51.684;5.142;2022-07-30T09:18:32;3.33;;;1.30;;
67839;SDS011;54636;51.684;5.142;2022-07-30T09:26:20;4.43;;;1.23;;
67839;SDS011;54636;51.684;5.142;2022-07-30T09:28:45;3.45;;;1.38;;
67839;SDS011;54636;51.684;5.142;2022-07-30T09:31:11;3.67;;;1.08;;
67839;SDS011;54636;51.684;5.142;2022-07-30T09:33:41;5.88;;;1.98;;
67839;SDS011;54636;51.684;5.142;2022-07-30T09:36:08;1.60;;;1.27;;
67839;SDS011;54636;51.684;5.142;2022-07-30T09:38:42;3.45;;;1.48;;
67839;SDS011;54636;51.684;5.142;2022-07-30T09:41:09;3.30;;;1.13;;
67839;SDS011;54636;51.684;5.142;2022-07-30T09:43:46;3.13;;;1.42;;
67839;SDS011;54636;51.684;5.142;2022-07-30T09:46:13;1.75;;;1.25;;
67839;SDS011;54636;51.684;5.142;2022-07-30T09:48:39;2.70;;;1.35;;
67839;SDS011;54636;51.684;5.142;2022-07-30T09:51:05;5.80;;;1.60;;
67839;SDS011;54636;51.684;5.142;2022-07-30T09:53:31;4.63;;;1.70;;
67839;SDS011;54636;51.684;5.142;2022-07-30T09:55:57;1.42;;;0.82;;
67839;SDS011;54636;51.684;5.142;2022-07-30T09:58:24;3.00;;;1.15;;
67839;SDS011;54636;51.684;5.142;2022-07-30T10:01:01;1.77;;;1.10;;
67839;SDS011;54636;51.684;5.142;2022-07-30T10:03:27;5.32;;;1.13;;
67839;SDS011;54636;51.684;5.142;2022-07-30T10:05:56;3.08;;;1.50;;
67839;SDS011;54636;51.684;5.142;2022-07-30T10:11:12;2.83;;;1.30;;
67839;SDS011;54636;51.684;5.142;2022-07-30T10:13:39;4.55;;;1.50;;
67839;SDS011;54636;51.684;5.142;2022-07-30T10:16:05;4.78;;;1.45;;
67839;SDS011;54636;51.684;5.142;2022-07-30T10:18:31;3.80;;;1.20;;
67839;SDS011;54636;51.684;5.142;2022-07-30T10:20:57;2.40;;;1.15;;
67839;SDS011;54636;51.684;5.142;2022-07-30T10:23:25;7.00;;;1.70;;
67839;SDS011;54636;51.684;5.142;2022-07-30T10:25:57;2.13;;;1.40;;
67839;SDS011;54636;51.684;5.142;2022-07-30T10:28:25;3.00;;;1.55;;
67839;SDS011;54636;51.684;5.142;2022-07-30T10:30:52;2.92;;;1.38;;
67839;SDS011;54636;51.684;5.142;2022-07-30T10:33:19;4.88;;;1.60;;
67839;SDS011;54636;51.684;5.142;2022-07-30T10:35:46;6.90;;;1.63;;
67839;SDS011;54636;51.684;5.142;2022-07-30T10:38:12;3.67;;;1.40;;
67839;SDS011;54636;51.684;5.142;2022-07-30T10:40:50;4.57;;;1.35;;
67839;SDS011;54636;51.684;5.142;2022-07-30T10:48:38;3.63;;;1.40;;
67839;SDS011;54636;51.684;5.142;2022-07-30T10:51:03;2.80;;;1.60;;
67839;SDS011;54636;51.684;5.142;2022-07-30T10:56:23;4.05;;;1.58;;
67839;SDS011;54636;51.684;5.142;2022-07-30T10:59:08;5.25;;;1.63;;
67839;SDS011;54636;51.684;5.142;2022-07-30T11:04:22;3.28;;;1.23;;
67839;SDS011;54636;51.684;5.142;2022-07-30T11:06:50;5.60;;;1.25;;
67839;SDS011;54636;51.684;5.142;2022-07-30T11:12:02;3.28;;;1.30;;
67839;SDS011;54636;51.684;5.142;2022-07-30T11:17:12;3.80;;;1.88;;
67839;SDS011;54636;51.684;5.142;2022-07-30T11:22:37;4.55;;;1.52;;
67839;SDS011;54636;51.684;5.142;2022-07-30T11:27:46;8.18;;;1.38;;
67839;SDS011;54636;51.684;5.142;2022-07-30T11:32:39;5.25;;;1.30;;
67839;SDS011;54636;51.684;5.142;2022-07-30T11:40:25;4.07;;;1.55;;
67839;SDS011;54636;51.684;5.142;2022-07-30T11:45:40;2.92;;;1.20;;
67839;SDS011;54636;51.684;5.142;2022-07-30T11:48:10;4.32;;;1.73;;
67839;SDS011;54636;51.684;5.142;2022-07-30T11:50:37;3.20;;;1.52;;
67839;SDS011;54636;51.684;5.142;2022-07-30T11:53:08;2.40;;;1.60;;
67839;SDS011;54636;51.684;5.142;2022-07-30T11:55:46;1.88;;;1.35;;
67839;SDS011;54636;51.684;5.142;2022-07-30T11:58:22;3.20;;;1.73;;
67839;SDS011;54636;51.684;5.142;2022-07-30T12:00:51;5.07;;;1.90;;
67839;SDS011;54636;51.684;5.142;2022-07-30T12:03:18;7.53;;;2.70;;
67839;SDS011;54636;51.684;5.142;2022-07-30T12:05:45;4.65;;;1.60;;
67839;SDS011;54636;51.684;5.142;2022-07-30T12:08:11;3.22;;;1.33;;
67839;SDS011;54636;51.684;5.142;2022-07-30T12:10:38;4.07;;;1.55;;
67839;SDS011;54636;51.684;5.142;2022-07-30T12:13:08;5.00;;;1.73;;
67839;SDS011;54636;51.684;5.142;2022-07-30T12:15:37;8.95;;;3.67;;
67839;SDS011;54636;51.684;5.142;2022-07-30T12:18:04;2.80;;;1.40;;
67839;SDS011;54636;51.684;5.142;2022-07-30T12:20:32;5.20;;;1.83;;
67839;SDS011;54636;51.684;5.142;2022-07-30T12:22:57;3.15;;;1.70;;
67839;SDS011;54636;51.684;5.142;2022-07-30T12:25:23;6.68;;;1.98;;
67839;SDS011;54636;51.684;5.142;2022-07-30T12:27:49;4.30;;;2.33;;
67839;SDS011;54636;51.684;5.142;2022-07-30T12:30:15;5.32;;;2.10;;
67839;SDS011;54636;51.684;5.142;2022-07-30T12:32:42;6.78;;;1.95;;
67839;SDS011;54636;51.684;5.142;2022-07-30T12:35:09;2.88;;;1.80;;
67839;SDS011;54636;51.684;5.142;2022-07-30T12:37:35;6.35;;;2.35;;
67839;SDS011;54636;51.684;5.142;2022-07-30T12:40:08;5.22;;;2.00;;
67839;SDS011;54636;51.684;5.142;2022-07-30T12:42:51;4.20;;;1.80;;
67839;SDS011;54636;51.684;5.142;2022-07-30T12:45:27;5.95;;;2.55;;
67839;SDS011;54636;51.684;5.142;2022-07-30T12:47:53;6.10;;;3.42;;
67839;SDS011;54636;51.684;5.142;2022-07-30T12:50:19;4.97;;;2.35;;
67839;SDS011;54636;51.684;5.142;2022-07-30T12:52:47;5.53;;;2.17;;
67839;SDS011;54636;51.684;5.142;2022-07-30T12:55:15;9.48;;;2.42;;
67839;SDS011;54636;51.684;5.142;2022-07-30T12:58:00;8.63;;;2.22;;
67839;SDS011;54636;51.684;5.142;2022-07-30T13:02:54;4.07;;;1.77;;
67839;SDS011;54636;51.684;5.142;2022-07-30T13:05:26;6.03;;;2.17;;
67839;SDS011;54636;51.684;5.142;2022-07-30T13:08:06;4.95;;;1.80;;
67839;SDS011;54636;51.684;5.142;2022-07-30T13:10:31;5.70;;;2.40;;
67839;SDS011;54636;51.684;5.142;2022-07-30T13:12:57;5.53;;;2.38;;
67839;SDS011;54636;51.684;5.142;2022-07-30T13:15:23;4.93;;;2.03;;
67839;SDS011;54636;51.684;5.142;2022-07-30T13:17:50;2.78;;;1.77;;
67839;SDS011;54636;51.684;5.142;2022-07-30T13:20:16;10.63;;;2.10;;
67839;SDS011;54636;51.684;5.142;2022-07-30T13:22:41;8.80;;;2.80;;
67839;SDS011;54636;51.684;5.142;2022-07-30T13:25:07;5.30;;;2.80;;
67839;SDS011;54636;51.684;5.142;2022-07-30T13:27:33;8.57;;;2.20;;
67839;SDS011;54636;51.684;5.142;2022-07-30T13:29:59;5.75;;;2.35;;
67839;SDS011;54636;51.684;5.142;2022-07-30T13:32:25;7.90;;;2.58;;
67839;SDS011;54636;51.684;5.142;2022-07-30T13:34:50;4.00;;;2.10;;
67839;SDS011;54636;51.684;5.142;2022-07-30T13:37:16;5.90;;;3.05;;
67839;SDS011;54636;51.684;5.142;2022-07-30T13:39:41;6.40;;;2.75;;
67839;SDS011;54636;51.684;5.142;2022-07-30T13:42:06;6.70;;;3.15;;
67839;SDS011;54636;51.684;5.142;2022-07-30T13:44:32;13.02;;;3.45;;
67839;SDS011;54636;51.684;5.142;2022-07-30T13:46:57;4.82;;;2.38;;
67839;SDS011;54636;51.684;5.142;2022-07-30T13:49:23;7.78;;;2.95;;
67839;SDS011;54636;51.684;5.142;2022-07-30T13:51:48;5.38;;;2.30;;
67839;SDS011;54636;51.684;5.142;2022-07-30T13:54:13;9.73;;;3.00;;
67839;SDS011;54636;51.684;5.142;2022-07-30T13:56:39;6.07;;;2.67;;
67839;SDS011;54636;51.684;5.142;2022-07-30T13:59:04;10.75;;;2.83;;
67839;SDS011;54636;51.684;5.142;2022-07-30T14:01:30;12.35;;;3.08;;
67839;SDS011;54636;51.684;5.142;2022-07-30T14:03:56;8.13;;;2.95;;
67839;SDS011;54636;51.684;5.142;2022-07-30T14:06:21;6.90;;;3.55;;
67839;SDS011;54636;51.684;5.142;2022-07-30T14:08:47;5.22;;;2.78;;
67839;SDS011;54636;51.684;5.142;2022-07-30T14:11:13;6.28;;;2.65;;
67839;SDS011;54636;51.684;5.142;2022-07-30T14:13:39;8.57;;;3.40;;
67839;SDS011;54636;51.684;5.142;2022-07-30T14:16:05;3.60;;;2.50;;
67839;SDS011;54636;51.684;5.142;2022-07-30T14:18:30;6.47;;;2.95;;
67839;SDS011;54636;51.684;5.142;2022-07-30T14:20:56;7.65;;;3.00;;
67839;SDS011;54636;51.684;5.142;2022-07-30T14:23:21;10.82;;;2.92;;
67839;SDS011;54636;51.684;5.142;2022-07-30T14:25:47;11.02;;;2.45;;
67839;SDS011;54636;51.684;5.142;2022-07-30T14:28:12;6.30;;;2.60;;
67839;SDS011;54636;51.684;5.142;2022-07-30T14:30:40;9.32;;;2.90;;
67839;SDS011;54636;51.684;5.142;2022-07-30T14:33:06;12.00;;;2.33;;
67839;SDS011;54636;51.684;5.142;2022-07-30T14:35:32;4.93;;;2.65;;
67839;SDS011;54636;51.684;5.142;2022-07-30T14:37:57;10.48;;;3.08;;
67839;SDS011;54636;51.684;5.142;2022-07-30T14:40:23;26.25;;;3.67;;
67839;SDS011;54636;51.684;5.142;2022-07-30T14:42:48;10.98;;;3.40;;
67839;SDS011;54636;51.684;5.142;2022-07-30T14:45:14;8.90;;;2.30;;
67839;SDS011;54636;51.684;5.142;2022-07-30T14:47:39;5.13;;;2.00;;
67839;SDS011;54636;51.684;5.142;2022-07-30T14:50:05;3.50;;;1.77;;
67839;SDS011;54636;51.684;5.142;2022-07-30T14:52:33;9.63;;;2.38;;
67839;SDS011;54636;51.684;5.142;2022-07-30T14:55:01;6.15;;;1.80;;
67839;SDS011;54636;51.684;5.142;2022-07-30T14:57:26;5.85;;;1.80;;
67839;SDS011;54636;51.684;5.142;2022-07-30T14:59:52;4.57;;;1.80;;
67839;SDS011;54636;51.684;5.142;2022-07-30T15:02:17;9.48;;;2.00;;
67839;SDS011;54636;51.684;5.142;2022-07-30T15:04:43;4.60;;;2.55;;
67839;SDS011;54636;51.684;5.142;2022-07-30T15:07:08;6.53;;;1.95;;
67839;SDS011;54636;51.684;5.142;2022-07-30T15:09:34;3.42;;;1.92;;
67839;SDS011;54636;51.684;5.142;2022-07-30T15:11:59;7.50;;;2.05;;
67839;SDS011;54636;51.684;5.142;2022-07-30T15:14:26;6.57;;;2.67;;
67839;SDS011;54636;51.684;5.142;2022-07-30T15:16:52;5.93;;;1.80;;
67839;SDS011;54636;51.684;5.142;2022-07-30T15:19:17;5.63;;;2.08;;
67839;SDS011;54636;51.684;5.142;2022-07-30T15:21:42;1.67;;;1.40;;
67839;SDS011;54636;51.684;5.142;2022-07-30T15:24:08;2.50;;;2.10;;
67839;SDS011;54636;51.684;5.142;2022-07-30T15:26:34;6.03;;;1.50;;
67839;SDS011;54636;51.684;5.142;2022-07-30T15:28:59;5.38;;;1.73;;
67839;SDS011;54636;51.684;5.142;2022-07-30T15:31:25;3.72;;;1.65;;
67839;SDS011;54636;51.684;5.142;2022-07-30T15:33:50;6.47;;;2.10;;
67839;SDS011;54636;51.684;5.142;2022-07-30T15:36:16;4.28;;;1.80;;
67839;SDS011;54636;51.684;5.142;2022-07-30T15:38:41;2.50;;;2.00;;